KPOB/POB METAR and TAF weather

Enter ICAO airport designator
Station Type Date Time Source
KPOB METAR 2019/06/16 11:56 UTC NOAA

KPOB 161156Z AUTO 24007KT 10SM CLR 23/20 A3007 RMK AO2 SLP184 T02260201 10226 20196 53006 $


Station Type Date Time Source
KPOB Decoded METAR 2019/06/16 11:56 UTC NOAA

Pope Air Force Base, NC, United States (KPOB) 35-10N 079-02W 61M
Jun 16, 2019 - 07:56 AM EDT / 2019.06.16 1156 UTC
Wind: from the WSW (240 degrees) at 8 MPH (7 KT):0
Visibility: 10 mile(s):0
Sky conditions: clear
Temperature: 72.7 F (22.6 C)
Dew Point: 68.2 F (20.1 C)
Relative Humidity: 85%
Pressure (altimeter): 30.07 in. Hg (1018 hPa)
Pressure tendency: 0.02 inches (0.6 hPa) higher than three hours ago
ob: KPOB 161156Z AUTO 24007KT 10SM CLR 23/20 A3007 RMK AO2 SLP184 T02260201 10226 20196 53006
cycle: 12

Station Type Date Time Source
KPOB TAF 2019/06/16 09:31 UTC NOAA

TAF KPOB 160900Z 1609/1715 VRB06KT 8000 BR SKC QNH3003INS
BECMG 1614/1615 22010G15KT 9999 NSW FEW040 SCT150 QNH2995INS
BECMG 1623/1624 20009KT 9999 SCT045 SCT150 QNH2997INS
BECMG 1705/1706 22009KT 8000 BR FEW010 SCT050 SCT150 510102 QNH2999INS
BECMG 1714/1715 23010G15KT 9999 NSW SCT055 SCT100 QNH3000INS TX31/1621Z TN19/1611Z

Example: see airport list